Time;durP1;ratioP1;P1;durP2;ratioP2;P2;SDS_P1;SDS_P2;PMS_P1;PMS_P2;Temp;Humidity;BMP_temperature;BMP_pressure;BME280_temperature;BME280_humidity;BME280_pressure;Samples;Min_cycle;Max_cycle;Signal;HPM_P1;HPM_P2
2021/09/24 00:01:07;;;;;;;;;24.67;24.67;16.70;42.90;;;;;;5034956;28;8781;-61
2021/09/24 00:03:32;;;;;;;;;24.33;24.33;16.70;42.70;;;;;;5033719;28;8821;-61
2021/09/24 00:05:58;;;;;;;;;26.00;25.00;16.60;43.00;;;;;;5034513;28;8833;-61
2021/09/24 00:08:25;;;;;;;;;18.33;18.33;16.60;43.00;;;;;;5032357;28;8848;-61
2021/09/24 00:10:52;;;;;;;;;25.67;25.67;16.60;43.10;;;;;;5029193;28;8786;-61
2021/09/24 00:13:19;;;;;;;;;23.00;23.00;16.70;43.10;;;;;;5033998;28;8937;-61
2021/09/24 00:15:45;;;;;;;;;28.25;28.25;16.60;43.10;;;;;;5034259;28;8880;-61
2021/09/24 00:18:11;;;;;;;;;26.50;26.50;16.50;43.30;;;;;;5034297;28;8793;-62
2021/09/24 00:20:37;;;;;;;;;25.25;25.25;16.50;43.30;;;;;;5034268;28;8777;-61
2021/09/24 00:23:04;;;;;;;;;29.50;29.50;16.50;43.30;;;;;;5032439;28;8813;-61
2021/09/24 00:25:30;;;;;;;;;27.00;27.00;16.50;43.40;;;;;;5034282;28;8766;-61
2021/09/24 00:27:58;;;;;;;;;27.00;27.00;16.50;43.40;;;;;;5034446;28;8812;-61
2021/09/24 00:30:25;;;;;;;;;31.25;31.25;16.60;43.40;;;;;;5034315;28;8753;-61
2021/09/24 00:32:51;;;;;;;;;22.50;22.25;16.60;43.40;;;;;;5034136;28;8778;-61
2021/09/24 00:35:17;;;;;;;;;26.33;26.33;16.60;43.30;;;;;;5034211;28;8798;-61
2021/09/24 00:37:43;;;;;;;;;27.75;27.75;16.70;43.10;;;;;;5034341;28;8790;-61
2021/09/24 00:40:09;;;;;;;;;29.75;29.75;16.70;43.10;;;;;;5034113;28;8876;-62
2021/09/24 00:42:37;;;;;;;;;24.00;24.00;16.70;44.10;;;;;;5034384;28;8782;-61
2021/09/24 00:45:04;;;;;;;;;25.50;25.50;16.60;42.90;;;;;;5033860;28;8808;-61
2021/09/24 00:47:31;;;;;;;;;29.50;29.50;16.70;43.10;;;;;;5032071;28;8821;-61
2021/09/24 00:49:57;;;;;;;;;30.25;30.25;16.80;42.90;;;;;;5033792;28;8804;-61
2021/09/24 00:52:23;;;;;;;;;27.00;27.00;16.90;42.90;;;;;;5031436;28;9460;-61
2021/09/24 00:54:51;;;;;;;;;24.67;24.67;16.70;43.00;;;;;;5034009;28;8782;-61
2021/09/24 00:57:18;;;;;;;;;26.00;26.00;16.70;43.00;;;;;;5034048;28;8796;-61
2021/09/24 00:59:46;;;;;;;;;30.50;30.50;16.80;43.10;;;;;;5034323;28;8750;-61
2021/09/24 01:02:12;;;;;;;;;23.50;23.50;16.80;43.00;;;;;;5034088;28;9165;-61
2021/09/24 01:04:38;;;;;;;;;28.25;28.25;16.80;43.00;;;;;;5034144;28;8837;-61
2021/09/24 01:07:06;;;;;;;;;31.33;31.33;16.90;42.90;;;;;;5034120;28;8819;-61
2021/09/24 01:09:32;;;;;;;;;26.25;26.25;16.80;43.00;;;;;;5034195;28;8766;-61
2021/09/24 01:11:58;;;;;;;;;31.50;31.50;16.70;43.50;;;;;;5034088;28;8765;-61
2021/09/24 01:14:30;;;;;;;;;34.25;33.50;16.60;43.20;;;;;;5034018;28;8842;-61
2021/09/24 01:16:57;;;;;;;;;28.00;28.00;16.60;43.10;;;;;;5033866;28;8786;-61
2021/09/24 01:19:23;;;;;;;;;31.75;31.75;16.60;43.30;;;;;;5033944;28;8808;-61
2021/09/24 01:21:50;;;;;;;;;27.25;27.00;16.50;43.40;;;;;;5031869;28;8789;-62
2021/09/24 01:24:16;;;;;;;;;30.25;30.25;16.50;44.60;;;;;;5033784;28;8774;-62
2021/09/24 01:27:00;;;;;;;;;25.75;25.75;16.50;43.80;;;;;;5036903;28;8765;-62
2021/09/24 01:29:27;;;;;;;;;29.75;29.75;16.50;43.80;;;;;;5037683;28;8842;-62
2021/09/24 01:31:53;;;;;;;;;30.50;30.50;16.40;43.90;;;;;;5037534;28;8804;-62
2021/09/24 01:34:19;;;;;;;;;31.25;31.25;16.30;44.10;;;;;;5027886;28;8800;-62
2021/09/24 01:36:45;;;;;;;;;32.75;32.00;16.40;44.00;;;;;;5017886;28;9465;-62
2021/09/24 01:39:11;;;;;;;;;31.25;30.50;16.50;43.70;;;;;;5017647;28;8771;-62
2021/09/24 01:41:39;;;;;;;;;33.25;32.25;16.50;43.60;;;;;;5017865;28;8779;-62
2021/09/24 01:44:04;;;;;;;;;34.00;33.50;16.40;43.90;;;;;;5017840;28;8810;-62
2021/09/24 01:46:30;;;;;;;;;29.75;29.75;16.40;43.90;;;;;;5017467;28;8776;-62
2021/09/24 01:48:56;;;;;;;;;32.75;32.75;16.40;43.80;;;;;;5017407;28;8807;-62
2021/09/24 01:51:22;;;;;;;;;31.25;30.50;16.30;44.10;;;;;;5025600;28;8813;-62
2021/09/24 01:53:48;;;;;;;;;32.50;31.75;16.20;44.30;;;;;;5037135;28;8904;-62
2021/09/24 01:56:14;;;;;;;;;31.00;31.00;16.20;44.40;;;;;;5037197;28;8800;-62
2021/09/24 01:58:40;;;;;;;;;32.75;32.75;16.00;44.60;;;;;;5037137;28;8778;-62
2021/09/24 02:01:06;;;;;;;;;32.00;32.00;16.10;44.60;;;;;;5037236;28;8789;-62
2021/09/24 02:03:31;;;;;;;;;32.25;32.25;16.20;44.70;;;;;;5037150;28;8829;-62
2021/09/24 02:05:57;;;;;;;;;26.75;26.75;16.20;44.60;;;;;;5036824;28;8822;-62
2021/09/24 02:08:23;;;;;;;;;30.50;30.50;16.20;44.30;;;;;;5037016;28;8895;-62
2021/09/24 02:10:49;;;;;;;;;34.75;34.25;16.00;44.40;;;;;;5036980;28;8769;-62
2021/09/24 02:13:14;;;;;;;;;34.25;33.25;16.10;44.60;;;;;;5036970;28;8777;-62
2021/09/24 02:15:40;;;;;;;;;27.33;26.67;16.00;44.70;;;;;;5036950;28;8766;-62
2021/09/24 02:18:06;;;;;;;;;33.50;33.50;16.10;44.60;;;;;;5036977;28;8770;-62
2021/09/24 02:20:31;;;;;;;;;27.67;27.67;16.10;44.70;;;;;;5033527;28;9479;-62
2021/09/24 02:22:57;;;;;;;;;28.25;28.25;16.20;44.60;;;;;;5036570;28;8843;-62
2021/09/24 02:25:23;;;;;;;;;28.33;28.33;16.10;44.50;;;;;;5036633;28;8774;-62
2021/09/24 02:27:49;;;;;;;;;27.50;27.50;16.10;44.50;;;;;;5036669;28;8801;-62
2021/09/24 02:30:15;;;;;;;;;27.00;26.33;16.10;44.40;;;;;;5036674;28;8765;-62
2021/09/24 02:32:40;;;;;;;;;30.75;28.00;16.10;44.60;;;;;;5036569;28;8773;-62
2021/09/24 02:35:07;;;;;;;;;26.00;26.00;16.00;44.30;;;;;;5036672;28;8793;-62
2021/09/24 02:37:33;;;;;;;;;30.50;30.50;15.90;44.50;;;;;;5036166;28;8809;-62
2021/09/24 02:39:59;;;;;;;;;35.50;35.50;16.00;44.60;;;;;;5036140;28;8785;-62
2021/09/24 02:42:25;;;;;;;;;39.00;36.00;15.70;44.70;;;;;;5036570;28;8783;-62
2021/09/24 02:44:51;;;;;;;;;34.50;33.00;15.70;45.00;;;;;;5036515;28;9460;-62
2021/09/24 02:47:16;;;;;;;;;24.00;24.00;15.60;45.10;;;;;;5036025;28;8805;-62
2021/09/24 02:49:44;;;;;;;;;35.25;34.75;15.70;45.20;;;;;;5034424;28;8798;-62
2021/09/24 02:52:10;;;;;;;;;33.00;32.25;15.70;45.20;;;;;;4996779;28;8809;-62
2021/09/24 02:54:36;;;;;;;;;35.25;34.50;15.70;45.10;;;;;;4996699;28;8782;-62
2021/09/24 02:57:01;;;;;;;;;37.75;36.00;15.60;45.10;;;;;;4996558;28;8774;-62
2021/09/24 02:59:27;;;;;;;;;33.25;33.00;15.60;45.10;;;;;;4996760;28;8779;-62
2021/09/24 03:01:55;;;;;;;;;32.25;31.75;15.60;45.20;;;;;;4996645;28;9473;-62
2021/09/24 03:04:21;;;;;;;;;32.50;32.50;15.60;45.20;;;;;;4996549;28;8940;-62
2021/09/24 03:06:47;;;;;;;;;28.50;28.50;15.60;45.40;;;;;;4996438;28;8885;-62
2021/09/24 03:09:13;;;;;;;;;36.75;35.00;15.60;45.20;;;;;;4996393;28;8943;-62
2021/09/24 03:11:38;;;;;;;;;31.75;31.75;15.60;45.20;;;;;;4996249;28;8779;-62
2021/09/24 03:14:04;;;;;;;;;27.75;27.75;15.60;45.30;;;;;;4996454;28;8794;-62
2021/09/24 03:16:30;;;;;;;;;26.50;26.50;15.60;45.30;;;;;;4996236;28;8901;-62
2021/09/24 03:18:56;;;;;;;;;31.00;31.00;15.60;45.40;;;;;;4996510;28;8775;-62
2021/09/24 03:21:22;;;;;;;;;21.50;21.50;15.70;45.10;;;;;;5026492;28;8900;-62
2021/09/24 03:23:47;;;;;;;;;31.00;31.00;15.70;44.90;;;;;;5035623;28;8788;-62
2021/09/24 03:26:13;;;;;;;;;28.75;28.00;15.70;45.00;;;;;;5035631;28;8758;-62
2021/09/24 03:28:39;;;;;;;;;33.75;33.75;15.60;45.00;;;;;;5035567;28;8852;-62
2021/09/24 03:31:05;;;;;;;;;30.75;30.75;15.60;44.90;;;;;;5035290;28;9529;-62
2021/09/24 03:33:31;;;;;;;;;28.50;28.50;15.50;45.20;;;;;;5035324;28;8797;-62
2021/09/24 03:35:57;;;;;;;;;27.75;27.75;15.50;45.40;;;;;;5035369;28;8769;-62
2021/09/24 03:38:22;;;;;;;;;33.50;33.50;15.60;45.30;;;;;;5035189;28;8801;-62
2021/09/24 03:40:49;;;;;;;;;29.75;29.75;15.50;45.40;;;;;;5035317;28;8954;-62
2021/09/24 03:43:14;;;;;;;;;31.50;31.50;15.60;45.50;;;;;;5035334;28;8789;-62
2021/09/24 03:45:40;;;;;;;;;32.50;32.00;15.60;45.50;;;;;;5035191;28;8804;-62
2021/09/24 03:48:06;;;;;;;;;32.25;32.25;15.60;45.40;;;;;;5034109;28;8841;-62
2021/09/24 03:50:32;;;;;;;;;35.50;34.50;15.60;45.40;;;;;;5030437;28;8843;-62
2021/09/24 03:52:58;;;;;;;;;35.50;34.25;15.50;45.60;;;;;;5034951;28;8834;-62
2021/09/24 03:55:23;;;;;;;;;39.00;37.00;15.50;45.50;;;;;;5034824;28;8773;-62
2021/09/24 03:57:49;;;;;;;;;34.75;33.75;15.60;45.70;;;;;;5034682;28;8789;-62
2021/09/24 04:00:16;;;;;;;;;34.25;33.25;15.60;45.60;;;;;;5034811;28;8789;-62
2021/09/24 04:02:42;;;;;;;;;35.25;33.75;15.60;45.70;;;;;;5034896;28;8831;-62
2021/09/24 04:05:08;;;;;;;;;36.00;34.50;15.60;45.80;;;;;;5034468;28;8829;-62
2021/09/24 04:07:34;;;;;;;;;46.50;41.25;15.50;45.90;;;;;;5034765;28;8931;-62
2021/09/24 04:10:00;;;;;;;;;59.00;51.00;15.60;45.90;;;;;;5034717;28;8777;-62
2021/09/24 04:12:26;;;;;;;;;59.00;50.00;15.50;46.00;;;;;;5034539;28;8784;-62
2021/09/24 04:14:52;;;;;;;;;48.50;41.75;15.60;45.70;;;;;;5034511;28;8791;-62
2021/09/24 04:17:18;;;;;;;;;39.50;37.00;15.70;45.90;;;;;;5034678;28;8770;-62
2021/09/24 04:19:43;;;;;;;;;56.25;48.00;15.70;45.60;;;;;;5032384;28;8769;-62
2021/09/24 04:22:09;;;;;;;;;65.50;55.00;15.60;45.60;;;;;;5034461;28;8761;-62
2021/09/24 04:24:35;;;;;;;;;65.00;54.50;15.50;46.00;;;;;;5034312;28;8797;-64
2021/09/24 04:27:01;;;;;;;;;72.50;60.00;15.50;46.00;;;;;;5034733;28;8909;-63
2021/09/24 04:29:27;;;;;;;;;70.00;58.25;15.40;46.10;;;;;;5034474;28;8765;-67
2021/09/24 04:31:52;;;;;;;;;61.25;51.50;15.50;47.00;;;;;;5034126;28;8820;-67
2021/09/24 04:34:18;;;;;;;;;59.50;50.50;15.50;45.90;;;;;;5034143;28;8930;-67
2021/09/24 04:36:44;;;;;;;;;58.50;50.00;15.50;46.00;;;;;;5034257;28;8835;-70
2021/09/24 04:39:10;;;;;;;;;56.25;48.50;15.50;45.90;;;;;;5026931;28;8815;-67
2021/09/24 04:41:36;;;;;;;;;51.00;43.75;15.60;45.80;;;;;;5022941;28;8793;-67
2021/09/24 04:44:03;;;;;;;;;52.50;45.00;15.70;45.80;;;;;;5013364;28;8910;-65
2021/09/24 04:46:29;;;;;;;;;55.25;46.75;15.60;45.50;;;;;;5014610;28;9451;-66
2021/09/24 04:48:54;;;;;;;;;56.25;48.50;15.70;45.40;;;;;;5014141;28;8844;-65
2021/09/24 04:51:20;;;;;;;;;60.25;50.50;15.80;46.40;;;;;;5023680;28;8864;-66
2021/09/24 04:53:46;;;;;;;;;59.00;49.75;15.80;45.30;;;;;;5034147;28;8777;-65
2021/09/24 04:56:12;;;;;;;;;55.75;47.50;15.80;45.30;;;;;;5017617;28;8784;-65
2021/09/24 04:58:38;;;;;;;;;52.25;45.50;15.80;45.50;;;;;;5018618;28;8784;-62
2021/09/24 05:01:03;;;;;;;;;51.50;44.75;15.80;45.50;;;;;;5027135;28;8776;-66
2021/09/24 05:03:29;;;;;;;;;51.25;44.50;15.80;45.60;;;;;;5028391;28;8836;-64
2021/09/24 05:05:55;;;;;;;;;47.25;42.00;15.70;45.70;;;;;;5030442;28;8808;-67
2021/09/24 05:08:21;;;;;;;;;45.50;40.50;15.60;45.90;;;;;;5027960;28;8843;-67
2021/09/24 05:10:46;;;;;;;;;48.50;42.00;15.60;46.00;;;;;;5030714;28;8804;-67
2021/09/24 05:13:12;;;;;;;;;49.25;43.25;15.60;45.90;;;;;;5025901;28;8804;-66
2021/09/24 05:15:38;;;;;;;;;49.25;43.00;15.80;45.80;;;;;;5037758;28;8785;-66
2021/09/24 05:18:06;;;;;;;;;40.75;38.75;15.80;45.50;;;;;;5040167;28;8796;-67
2021/09/24 05:20:32;;;;;;;;;54.00;46.00;15.80;45.50;;;;;;5009815;28;8782;-66
2021/09/24 05:22:58;;;;;;;;;50.00;43.00;15.80;45.70;;;;;;5031950;28;8774;-67
2021/09/24 05:25:24;;;;;;;;;55.25;48.25;15.80;45.60;;;;;;5026612;28;8768;-66
2021/09/24 05:27:50;;;;;;;;;61.25;51.00;15.90;45.60;;;;;;5027722;28;8882;-67
2021/09/24 05:30:16;;;;;;;;;52.50;44.00;16.00;45.30;;;;;;5026548;28;8749;-66
2021/09/24 05:32:42;;;;;;;;;55.75;47.50;16.10;45.00;;;;;;5028174;28;8778;-67
2021/09/24 05:35:09;;;;;;;;;54.00;46.00;16.20;44.70;;;;;;5040676;28;8801;-67
2021/09/24 05:37:36;;;;;;;;;56.00;48.00;16.30;44.80;;;;;;5031249;28;8791;-66
2021/09/24 05:40:02;;;;;;;;;61.00;50.25;16.30;44.70;;;;;;5032824;28;8780;-66
2021/09/24 05:42:28;;;;;;;;;66.50;55.75;16.40;44.70;;;;;;5039868;28;8781;-67
2021/09/24 05:44:55;;;;;;;;;69.00;56.50;16.40;44.60;;;;;;5023729;28;8792;-67
2021/09/24 05:47:21;;;;;;;;;73.50;60.50;16.50;44.50;;;;;;5019890;28;8935;-66
2021/09/24 05:49:47;;;;;;;;;68.50;57.25;16.50;44.50;;;;;;5029721;28;8919;-67
2021/09/24 05:52:13;;;;;;;;;70.50;58.25;16.50;44.40;;;;;;5036787;28;8829;-77
2021/09/24 05:54:38;;;;;;;;;67.50;55.00;16.50;44.50;;;;;;5026210;28;8785;-70
2021/09/24 05:57:04;;;;;;;;;66.25;54.50;16.60;44.50;;;;;;5033318;28;8792;-64
2021/09/24 05:59:30;;;;;;;;;65.50;53.75;16.80;44.40;;;;;;5031907;28;8790;-64
2021/09/24 06:01:56;;;;;;;;;58.00;49.75;16.80;44.30;;;;;;5030437;28;8776;-65
2021/09/24 06:04:21;;;;;;;;;61.75;52.75;16.90;44.20;;;;;;5025039;28;9498;-64
2021/09/24 06:06:48;;;;;;;;;63.00;53.00;17.00;44.00;;;;;;5026127;28;9442;-64
2021/09/24 06:09:14;;;;;;;;;59.75;49.00;17.00;43.70;;;;;;5036692;28;8786;-65
2021/09/24 06:11:40;;;;;;;;;69.75;57.00;17.00;43.70;;;;;;5029030;28;8776;-65
2021/09/24 06:14:06;;;;;;;;;67.50;55.50;17.00;43.90;;;;;;5029884;28;8765;-65
2021/09/24 06:16:32;;;;;;;;;71.00;58.75;17.10;43.90;;;;;;5036921;28;8888;-63
2021/09/24 06:18:58;;;;;;;;;69.50;55.75;17.10;43.70;;;;;;5032355;28;8786;-64
2021/09/24 06:21:25;;;;;;;;;69.25;56.75;17.20;44.80;;;;;;5020489;28;8804;-64
2021/09/24 06:23:51;;;;;;;;;64.50;53.00;17.30;43.40;;;;;;5027120;28;8789;-64
2021/09/24 06:26:17;;;;;;;;;68.25;56.25;17.50;43.50;;;;;;5021720;28;8830;-64
2021/09/24 06:28:42;;;;;;;;;66.00;54.00;17.50;43.50;;;;;;5023630;28;8816;-64
2021/09/24 06:31:08;;;;;;;;;65.00;54.00;17.50;43.60;;;;;;5025457;28;8772;-64
2021/09/24 06:33:34;;;;;;;;;63.50;53.75;17.60;44.00;;;;;;5022311;28;8804;-64
2021/09/24 06:36:00;;;;;;;;;48.00;41.50;17.70;44.10;;;;;;5024439;28;8764;-64
2021/09/24 06:38:26;;;;;;;;;48.00;42.00;17.80;44.10;;;;;;5036133;28;8793;-65
2021/09/24 06:40:53;;;;;;;;;48.75;42.00;17.90;43.80;;;;;;5036645;28;8766;-65
2021/09/24 06:43:19;;;;;;;;;50.50;43.00;17.90;44.00;;;;;;5032933;28;8764;-64
2021/09/24 06:45:45;;;;;;;;;46.25;40.75;18.00;44.10;;;;;;5016982;28;8847;-64
2021/09/24 06:48:11;;;;;;;;;44.75;39.75;17.90;44.30;;;;;;5016535;28;8792;-65
2021/09/24 06:50:38;;;;;;;;;51.25;43.50;17.90;45.10;;;;;;5021762;28;8936;-65
2021/09/24 06:53:04;;;;;;;;;49.75;43.50;18.00;44.90;;;;;;5034985;28;8797;-65
2021/09/24 06:55:30;;;;;;;;;47.25;41.00;18.10;44.40;;;;;;5022908;28;8815;-64
2021/09/24 06:57:57;;;;;;;;;50.25;42.75;18.30;44.30;;;;;;5028550;28;8804;-65
2021/09/24 07:00:24;;;;;;;;;49.00;42.50;18.40;43.80;;;;;;5024019;28;8883;-64
2021/09/24 07:02:50;;;;;;;;;47.25;41.25;18.60;43.60;;;;;;5024697;28;8789;-64
2021/09/24 07:05:16;;;;;;;;;46.75;41.00;18.70;43.60;;;;;;5024117;28;8887;-66
2021/09/24 07:07:42;;;;;;;;;44.00;40.00;18.90;43.10;;;;;;5020789;28;8792;-64
2021/09/24 07:10:11;;;;;;;;;44.00;38.00;19.00;43.00;;;;;;5022720;28;8818;-65
2021/09/24 07:12:38;;;;;;;;;48.00;42.00;19.00;43.00;;;;;;5027209;28;8781;-65
2021/09/24 07:15:04;;;;;;;;;44.25;38.25;19.00;42.90;;;;;;5036196;28;9447;-65
2021/09/24 07:17:30;;;;;;;;;42.50;38.25;18.90;42.70;;;;;;5032651;28;8919;-63
2021/09/24 07:19:57;;;;;;;;;39.50;36.00;19.10;42.20;;;;;;5015105;28;8889;-65
2021/09/24 07:22:23;;;;;;;;;48.00;41.00;19.20;41.70;;;;;;5035074;28;8876;-65
2021/09/24 07:24:50;;;;;;;;;51.25;44.00;19.30;41.90;;;;;;5025245;28;8800;-65
2021/09/24 07:27:17;;;;;;;;;53.25;46.00;19.40;42.10;;;;;;5025889;28;8820;-65
2021/09/24 07:29:43;;;;;;;;;52.25;44.50;19.40;41.70;;;;;;5015844;28;8776;-66
2021/09/24 07:32:09;;;;;;;;;52.00;44.50;19.40;41.70;;;;;;5019561;28;9463;-64
2021/09/24 07:34:35;;;;;;;;;51.00;43.75;19.50;41.80;;;;;;5024985;28;8813;-65
2021/09/24 07:37:02;;;;;;;;;47.50;41.50;19.60;41.30;;;;;;5035598;28;8796;-65
2021/09/24 07:39:28;;;;;;;;;50.50;43.50;19.70;40.80;;;;;;5000502;28;8902;-64
2021/09/24 07:41:53;;;;;;;;;50.25;43.25;19.70;40.70;;;;;;5032927;28;8892;-65
2021/09/24 07:44:19;;;;;;;;;41.50;36.50;19.80;40.30;;;;;;5024358;28;8780;-64
2021/09/24 07:46:47;;;;;;;;;46.00;39.50;19.80;41.20;;;;;;5024779;28;8884;-65
2021/09/24 07:49:13;;;;;;;;;53.50;45.50;19.80;40.20;;;;;;5026026;28;9612;-65
2021/09/24 07:51:39;;;;;;;;;47.50;41.25;19.70;40.10;;;;;;5024532;28;8904;-64
2021/09/24 07:54:04;;;;;;;;;52.25;44.25;19.80;40.40;;;;;;5015642;28;8772;-65
2021/09/24 07:56:30;;;;;;;;;54.75;46.25;19.80;40.20;;;;;;5034134;28;8778;-65
2021/09/24 07:58:56;;;;;;;;;55.25;45.50;19.90;39.90;;;;;;5034403;28;8785;-66
2021/09/24 08:01:24;;;;;;;;;51.75;44.50;19.80;40.00;;;;;;5015205;28;8871;-65
2021/09/24 08:03:51;;;;;;;;;52.00;44.25;19.80;39.70;;;;;;5017261;28;8805;-64
2021/09/24 08:06:19;;;;;;;;;48.00;42.00;19.90;40.10;;;;;;5034899;28;8785;-64
2021/09/24 08:08:46;;;;;;;;;37.75;34.50;19.90;40.10;;;;;;5033760;28;8821;-65
2021/09/24 08:11:12;;;;;;;;;39.25;36.25;19.90;40.50;;;;;;5035132;28;8761;-64
2021/09/24 08:13:38;;;;;;;;;40.75;36.75;20.00;39.80;;;;;;5034829;28;8782;-65
2021/09/24 08:16:04;;;;;;;;;32.33;32.00;20.00;39.80;;;;;;5035032;28;8801;-65
2021/09/24 08:18:30;;;;;;;;;34.00;32.33;20.00;39.60;;;;;;5028395;28;8780;-66
2021/09/24 08:20:58;;;;;;;;;32.00;31.00;20.10;39.90;;;;;;5016254;28;9556;-66
2021/09/24 08:23:23;;;;;;;;;22.00;22.00;20.20;39.90;;;;;;5027091;28;8825;-65
2021/09/24 08:25:49;;;;;;;;;30.33;30.00;20.30;39.50;;;;;;5021256;28;8788;-65
2021/09/24 08:28:16;;;;;;;;;28.33;28.33;20.30;39.50;;;;;;5031982;28;8851;-65
2021/09/24 08:30:42;;;;;;;;;23.67;23.67;20.40;39.60;;;;;;5034529;28;8769;-65
2021/09/24 08:33:08;;;;;;;;;22.00;22.00;20.40;39.20;;;;;;5023626;28;8884;-64
2021/09/24 08:35:34;;;;;;;;;21.33;21.33;20.40;38.60;;;;;;5025084;28;9475;-65
2021/09/24 08:38:01;;;;;;;;;16.00;16.00;20.40;38.50;;;;;;5034272;28;8793;-65
2021/09/24 08:40:29;;;;;;;;;19.67;18.67;20.50;38.20;;;;;;5020700;28;8835;-64
2021/09/24 08:42:55;;;;;;;;;19.33;19.33;20.60;37.80;;;;;;5034253;28;9713;-65
2021/09/24 08:45:23;;;;;;;;;18.67;18.67;20.60;37.40;;;;;;5014601;28;8830;-65
2021/09/24 08:47:58;;;;;;;;;20.67;20.67;20.70;37.10;;;;;;5028495;28;8848;-65
2021/09/24 08:50:25;;;;;;;;;14.67;14.67;20.70;36.60;;;;;;5024016;28;8777;-65
2021/09/24 08:52:51;;;;;;;;;17.00;17.00;20.80;36.80;;;;;;5034551;28;8757;-65
2021/09/24 08:55:18;;;;;;;;;13.67;13.67;20.90;36.10;;;;;;5034303;28;8893;-65
2021/09/24 08:57:45;;;;;;;;;14.67;14.67;20.90;36.30;;;;;;5034314;28;9458;-65
2021/09/24 09:00:12;;;;;;;;;11.67;11.67;21.10;35.50;;;;;;5026505;28;8764;-65
2021/09/24 09:03:02;;;;;;;;;11.00;11.00;21.20;34.60;;;;;;5030256;28;8816;-65
2021/09/24 09:05:34;;;;;;;;;8.33;8.33;21.20;33.30;;;;;;5030063;28;8792;-65
2021/09/24 09:08:09;;;;;;;;;10.00;10.00;21.30;33.00;;;;;;5016665;28;8831;-64
2021/09/24 09:10:40;;;;;;;;;4.67;4.67;21.50;32.30;;;;;;5025705;28;8765;-65
2021/09/24 09:13:09;;;;;;;;;6.33;6.33;21.50;31.00;;;;;;5034206;28;8766;-65
2021/09/24 09:15:36;;;;;;;;;6.00;6.00;21.50;30.40;;;;;;5030004;28;8792;-67
2021/09/24 09:18:02;;;;;;;;;7.00;7.00;21.80;30.60;;;;;;5033581;28;8746;-66
2021/09/24 09:20:32;;;;;;;;;5.00;5.00;21.80;31.00;;;;;;5023650;28;8777;-65
2021/09/24 09:23:00;;;;;;;;;6.00;6.00;21.90;31.00;;;;;;5034087;28;8820;-66
2021/09/24 09:25:32;;;;;;;;;4.67;4.67;22.20;30.90;;;;;;5034104;28;8798;-65
2021/09/24 09:28:02;;;;;;;;;5.67;5.67;22.20;30.50;;;;;;5033818;28;8797;-66
2021/09/24 09:30:28;;;;;;;;;6.00;6.00;22.40;30.20;;;;;;5024181;28;8788;-65
2021/09/24 09:33:17;;;;;;;;;7.00;7.00;22.50;30.40;;;;;;5014072;28;8770;-65
2021/09/24 09:35:53;;;;;;;;;7.00;7.00;22.60;30.00;;;;;;5013563;28;11476;-65
2021/09/24 09:38:22;;;;;;;;;9.67;9.67;22.50;30.10;;;;;;5014403;28;8768;-65
2021/09/24 09:40:55;;;;;;;;;9.00;9.00;22.60;30.20;;;;;;5026186;28;8866;-65
2021/09/24 09:43:23;;;;;;;;;10.00;10.00;22.70;29.90;;;;;;5029805;28;11463;-65
2021/09/24 09:45:49;;;;;;;;;9.67;8.33;22.90;30.40;;;;;;5014189;28;8830;-64
2021/09/24 09:48:15;;;;;;;;;7.33;7.33;22.80;30.00;;;;;;5017486;28;11484;-64
2021/09/24 09:50:43;;;;;;;;;8.00;8.00;22.90;30.10;;;;;;5034281;28;11447;-66
2021/09/24 09:53:17;;;;;;;;;8.00;8.00;23.00;30.20;;;;;;5028636;28;8795;-65
2021/09/24 09:55:50;;;;;;;;;10.67;10.67;23.10;30.40;;;;;;5017671;28;8866;-65
2021/09/24 09:58:17;;;;;;;;;8.33;8.33;23.30;30.40;;;;;;5017625;28;8772;-65
2021/09/24 10:01:05;;;;;;;;;9.33;9.33;23.50;30.50;;;;;;5017746;28;8795;-65
2021/09/24 10:03:34;;;;;;;;;9.67;9.67;23.70;30.10;;;;;;5016851;28;8811;-64
2021/09/24 10:06:03;;;;;;;;;10.33;10.33;23.80;30.00;;;;;;5017280;28;8809;-63
2021/09/24 10:08:33;;;;;;;;;10.67;10.67;24.20;29.70;;;;;;5017362;28;8815;-64
2021/09/24 10:11:06;;;;;;;;;12.00;12.00;24.40;29.70;;;;;;5017383;28;8906;-65
2021/09/24 10:13:55;;;;;;;;;9.00;9.00;24.50;29.20;;;;;;5017592;28;9446;-64
2021/09/24 10:16:25;;;;;;;;;10.00;10.00;24.60;29.00;;;;;;5017594;28;8787;-64
2021/09/24 10:18:51;;;;;;;;;10.67;10.67;24.90;29.00;;;;;;5015675;28;8790;-65
2021/09/24 10:21:18;;;;;;;;;11.33;11.33;25.10;28.40;;;;;;5028823;28;11491;-66
2021/09/24 10:23:45;;;;;;;;;11.33;11.33;25.40;28.30;;;;;;5037007;28;8777;-65
2021/09/24 10:26:24;;;;;;;;;9.00;9.00;25.40;27.90;;;;;;5036649;28;11497;-65
2021/09/24 10:29:07;;;;;;;;;8.00;8.00;25.70;27.60;;;;;;5036996;28;11534;-68
2021/09/24 10:31:39;;;;;;;;;9.00;8.67;25.80;27.40;;;;;;5036905;28;11597;-68
2021/09/24 10:34:06;;;;;;;;;9.33;9.33;26.10;27.50;;;;;;5020252;28;11600;-68
2021/09/24 10:36:51;;;;;;;;;9.00;9.00;26.30;27.10;;;;;;5016699;28;11482;-68
2021/09/24 10:39:33;;;;;;;;;10.00;10.00;26.40;26.90;;;;;;5016770;28;11419;-68
2021/09/24 10:42:37;;;;;;;;;10.00;10.00;26.80;26.40;;;;;;5016940;28;11457;-68
2021/09/24 10:45:11;;;;;;;;;9.50;9.50;27.10;26.30;;;;;;4975092;28;11699;-68
2021/09/24 10:48:04;;;;;;;;;11.50;11.50;27.50;26.10;;;;;;4974798;28;11552;-68
2021/09/24 10:50:33;;;;;;;;;9.50;9.50;28.00;25.80;;;;;;5015149;28;12166;-68
2021/09/24 10:53:21;;;;;;;;;10.00;10.00;28.20;25.50;;;;;;5036163;28;11440;-68
2021/09/24 10:55:53;;;;;;;;;8.50;8.50;28.40;24.90;;;;;;5036228;28;11456;-68
2021/09/24 10:58:28;;;;;;;;;7.75;7.75;28.30;24.10;;;;;;5035780;28;11513;-68
2021/09/24 11:00:56;;;;;;;;;9.00;9.00;28.60;24.50;;;;;;5024230;28;11484;-68
2021/09/24 11:03:24;;;;;;;;;7.00;7.00;28.50;24.00;;;;;;5018382;28;11479;-68
2021/09/24 11:06:11;;;;;;;;;9.00;9.00;29.00;24.20;;;;;;5023032;28;12129;-68
2021/09/24 11:08:43;;;;;;;;;9.00;9.00;29.20;23.80;;;;;;5025053;28;11633;-68
2021/09/24 11:11:31;;;;;;;;;7.75;7.75;29.30;23.40;;;;;;5027774;28;11614;-68
2021/09/24 11:14:02;;;;;;;;;6.25;6.25;29.60;24.10;;;;;;5035314;28;11432;-68
2021/09/24 11:16:44;;;;;;;;;7.75;7.75;29.50;23.30;;;;;;5027031;28;11488;-68
2021/09/24 11:19:29;;;;;;;;;9.00;9.00;29.90;23.50;;;;;;5016653;28;11474;-67
2021/09/24 11:22:03;;;;;;;;;9.00;9.00;30.00;22.70;;;;;;5017520;28;11466;-68
2021/09/24 11:24:35;;;;;;;;;8.25;8.25;30.10;22.60;;;;;;5012656;28;11492;-68
2021/09/24 11:27:06;;;;;;;;;12.00;12.00;30.40;23.00;;;;;;5015666;28;11653;-68
2021/09/24 11:29:36;;;;;;;;;10.00;10.00;30.80;23.00;;;;;;5015966;28;11534;-68
2021/09/24 11:32:01;;;;;;;;;10.50;10.50;31.00;22.20;;;;;;5015018;28;11512;-68
2021/09/24 11:34:33;;;;;;;;;8.50;8.50;31.40;22.20;;;;;;5015763;28;11556;-68
2021/09/24 11:37:04;;;;;;;;;8.50;8.50;31.80;21.40;;;;;;5015629;28;8774;-68
2021/09/24 11:39:30;;;;;;;;;9.00;9.00;32.70;20.80;;;;;;5015451;28;11448;-68
2021/09/24 11:42:05;;;;;;;;;8.50;8.50;34.10;19.50;;;;;;5015369;28;11468;-69
2021/09/24 11:44:32;;;;;;;;;7.50;7.50;36.90;17.40;;;;;;5014620;28;11488;-68
2021/09/24 11:46:58;;;;;;;;;7.75;7.75;39.30;16.10;;;;;;5034519;28;11448;-69
2021/09/24 11:49:23;;;;;;;;;8.50;8.50;40.90;15.10;;;;;;5029128;28;11504;-68
2021/09/24 11:51:58;;;;;;;;;6.00;6.00;43.40;14.70;;;;;;5035306;28;8774;-68
2021/09/24 11:54:24;;;;;;;;;7.75;7.75;45.30;13.90;;;;;;5033392;28;8851;-69
2021/09/24 11:56:50;;;;;;;;;9.50;9.50;47.30;13.30;;;;;;5015167;28;11444;-70
2021/09/24 11:59:15;;;;;;;;;7.25;7.25;48.90;12.70;;;;;;5014392;28;11497;-67
2021/09/24 12:01:43;;;;;;;;;9.00;9.00;49.80;11.50;;;;;;5014396;28;11529;-70
2021/09/24 12:04:10;;;;;;;;;9.25;9.25;50.00;11.30;;;;;;5013281;28;8880;-69
2021/09/24 12:06:38;;;;;;;;;8.00;8.00;51.10;11.20;;;;;;5015119;28;11573;-68
2021/09/24 12:09:10;;;;;;;;;8.75;8.75;52.00;10.70;;;;;;5014209;28;11623;-69
2021/09/24 12:11:46;;;;;;;;;10.00;10.00;52.40;10.10;;;;;;5014697;28;11470;-66
2021/09/24 12:14:14;;;;;;;;;8.50;8.50;52.60;9.80;;;;;;5018260;28;11468;-66
2021/09/24 12:16:41;;;;;;;;;8.00;8.00;52.40;9.80;;;;;;5033993;28;11571;-66
2021/09/24 12:19:20;;;;;;;;;8.25;8.25;52.70;9.90;;;;;;5022960;28;11594;-67
2021/09/24 12:21:49;;;;;;;;;7.00;7.00;51.30;9.50;;;;;;5034473;28;11477;-67
2021/09/24 12:24:29;;;;;;;;;8.00;8.00;50.30;9.80;;;;;;5034593;28;11456;-67
2021/09/24 12:27:25;;;;;;;;;7.00;7.00;49.90;10.00;;;;;;5034666;28;11451;-69
2021/09/24 12:29:52;;;;;;;;;9.50;9.50;51.30;10.00;;;;;;5019873;28;11553;-67
2021/09/24 12:32:21;;;;;;;;;8.25;8.25;52.20;9.70;;;;;;5014993;28;11524;-67
2021/09/24 12:35:05;;;;;;;;;11.00;11.00;51.90;9.60;;;;;;5014983;28;11496;-70
2021/09/24 12:37:35;;;;;;;;;8.50;8.50;52.30;9.70;;;;;;5014655;28;11504;-69
2021/09/24 12:40:05;;;;;;;;;9.00;9.00;51.90;9.60;;;;;;5014490;28;11461;-70
2021/09/24 12:42:40;;;;;;;;;8.25;8.25;51.50;10.20;;;;;;5014155;28;11455;-70
2021/09/24 12:45:09;;;;;;;;;8.75;8.75;51.30;10.40;;;;;;5013019;28;11507;-69